Bar Harbor, ME

10:13 AM EDT on July 28, 2017 (GMT -0400)
Hancock County-Bar Harbor

Weather History for KBHB - October, 2011

Change the Weather History Date:

Thursday, October 20, 2011

  Actual Average Record
Temperature  
Mean Temperature 56 °F -  
Max Temperature 60 °F 53 °F 73 °F (1963)
Min Temperature 53 °F 39 °F 25 °F (1948)
Degree Days  
Heating Degree Days 8    
Growing Degree Days 6 (Base 50)    
Moisture  
Dew Point 49 °F    
Average Humidity 80    
Maximum Humidity 88    
Minimum Humidity 72    
Precipitation  
Precipitation 0.31 in - - ()
Sea Level Pressure  
Sea Level Pressure 29.63 in    
Wind  
Wind Speed 12 mph (East)    
Max Wind Speed 17 mph    
Max Gust Speed 25 mph    
Visibility 7 miles    
Events      
Averages and records for this station are not official NWS values.
T = Trace of Precipitation, MM = Missing Value Source: NWS Daily Summary

Daily Weather History Graph

Daily Weather History Graph

Search for Another Location

Airport or City:

Trip Planner

Search our weather history database for the weather conditions in past years. The results will help you decide how hot, cold, wet, or windy it might be!

Date:

Astronomy

Oct. 20, 2011 Rise Set
Actual Time 6:54 AM EDT 5:41 PM EDT
Civil Twilight 6:24 AM EDT 6:10 PM EDT
Nautical Twilight 5:51 AM EDT 6:44 PM EDT
Astronomical Twilight 5:17 AM EDT 7:18 PM EDT
Moon No Moon Rise 2:03 PM EDT (10/20)
Length of Visible Light 11h 45m
Length of Day
10h 46m
Last Quarter, 44% of the Moon is Illuminated
Oct 20
Last Quarter
Oct 26
New
Nov 2
First Quarter
Nov 10
Full
Nov 18
Last Quarter

Hourly Weather History & Observations

Time (EDT) Temp. Dew Point Humidity Pressure Visibility Wind Dir Wind Speed Gust Speed Precip Events Conditions
12:15 AM 53.6 °F 46.4 °F 77% 29.78 in 4.0 mi ENE 11.5 mph 17.3 mph N/A   Overcast
12:35 AM 53.6 °F 46.4 °F 77% 29.76 in 3.0 mi ENE 13.8 mph 23.0 mph N/A   Overcast
12:55 AM 53.6 °F 48.2 °F 82% 29.76 in 4.0 mi NE 12.7 mph 20.7 mph 0.02 in   Overcast
1:15 AM 53.6 °F 46.4 °F 77% 29.74 in 3.0 mi NE 12.7 mph 19.6 mph 0.01 in   Overcast
1:35 AM 53.6 °F 46.4 °F 77% 29.73 in 6.0 mi NE 12.7 mph - 0.01 in   Overcast
1:55 AM 53.6 °F 46.4 °F 77% 29.73 in 3.0 mi ENE 15.0 mph 19.6 mph 0.01 in   Overcast
2:15 AM 53.6 °F 46.4 °F 77% 29.72 in 2.5 mi ENE 15.0 mph 20.7 mph N/A   Overcast
2:35 AM 53.6 °F 46.4 °F 77% 29.72 in 3.0 mi ENE 12.7 mph 17.3 mph N/A   Overcast
2:55 AM 53.6 °F 46.4 °F 77% 29.71 in 5.0 mi ENE 10.4 mph 17.3 mph 0.01 in   Overcast
3:15 AM 53.6 °F 46.4 °F 77% 29.70 in 5.0 mi ENE 13.8 mph 18.4 mph 0.01 in   Overcast
3:35 AM 53.6 °F 46.4 °F 77% 29.70 in 5.0 mi ENE 9.2 mph 18.4 mph 0.04 in   Overcast
3:55 AM 53.6 °F 48.2 °F 82% 29.69 in 8.0 mi NE 8.1 mph - 0.10 in   Overcast
4:15 AM 53.6 °F 46.4 °F 77% 29.68 in 9.0 mi NE 12.7 mph - 0.02 in   Overcast
4:35 AM 53.6 °F 46.4 °F 77% 29.68 in 10.0 mi ENE 9.2 mph - 0.02 in   Overcast
4:55 AM 53.6 °F 48.2 °F 82% 29.68 in 10.0 mi ENE 11.5 mph - 0.03 in   Overcast
5:35 AM 53.6 °F 46.4 °F 77% 29.67 in 10.0 mi ENE 11.5 mph 17.3 mph 0.06 in   Overcast
6:35 AM 53.6 °F 46.4 °F 77% 29.65 in 7.0 mi ENE 11.5 mph 17.3 mph N/A   Overcast
7:15 AM 53.6 °F 48.2 °F 82% 29.64 in 8.0 mi East 12.7 mph 17.3 mph N/A   Overcast
7:35 AM 53.6 °F 48.2 °F 82% 29.65 in 10.0 mi ENE 10.4 mph - N/A   Overcast
7:55 AM 53.6 °F 48.2 °F 82% 29.65 in 7.0 mi ENE 9.2 mph 18.4 mph N/A   Overcast
8:15 AM 53.6 °F 48.2 °F 82% 29.64 in 4.0 mi East 11.5 mph 16.1 mph N/A   Overcast
8:35 AM 53.6 °F 48.2 °F 82% 29.64 in 5.0 mi East 10.4 mph 17.3 mph N/A   Overcast
8:55 AM 53.6 °F 48.2 °F 82% 29.65 in 3.0 mi East 11.5 mph 17.3 mph 0.06 in   Overcast
9:15 AM 53.6 °F 48.2 °F 82% 29.64 in 3.0 mi ENE 10.4 mph 19.6 mph 0.01 in   Overcast
9:35 AM 53.6 °F 48.2 °F 82% 29.65 in 5.0 mi East 6.9 mph - 0.01 in   Overcast
9:55 AM 53.6 °F 48.2 °F 82% 29.65 in 5.0 mi ENE 5.8 mph - 0.01 in   Overcast
10:15 AM 53.6 °F 50.0 °F 88% 29.64 in 3.0 mi ENE 9.2 mph - N/A   Overcast
10:35 AM 53.6 °F 48.2 °F 82% 29.62 in 4.0 mi ENE 9.2 mph - N/A   Overcast
10:55 AM 55.4 °F 51.8 °F 88% 29.63 in 8.0 mi East 3.5 mph - N/A   Overcast
11:15 AM 55.4 °F 50.0 °F 82% 29.61 in 10.0 mi East 6.9 mph - N/A   Overcast
11:35 AM 55.4 °F 50.0 °F 82% 29.63 in 10.0 mi East 6.9 mph - N/A   Overcast
11:55 AM 55.4 °F 51.8 °F 88% 29.63 in 10.0 mi East 5.8 mph - N/A   Overcast
12:15 PM 55.4 °F 50.0 °F 82% 29.59 in 9.0 mi East 6.9 mph - 0.01 in   Overcast
12:35 PM 55.4 °F 50.0 °F 82% 29.54 in 10.0 mi East 13.8 mph 24.2 mph 0.01 in   Overcast
12:55 PM 55.4 °F 51.8 °F 88% 29.54 in 10.0 mi East 12.7 mph 20.7 mph 0.01 in   Overcast
1:15 PM 57.2 °F 51.8 °F 82% 29.54 in 10.0 mi East 10.4 mph 18.4 mph N/A   Overcast
1:35 PM 57.2 °F 51.8 °F 82% 29.54 in 10.0 mi East 11.5 mph 19.6 mph N/A   Overcast
1:55 PM 57.2 °F 51.8 °F 82% 29.54 in 10.0 mi East 10.4 mph - N/A   Overcast
2:55 PM 57.2 °F 53.6 °F 88% 29.55 in 2.0 mi SSE 11.5 mph - N/A   Overcast
3:15 PM 57.2 °F 51.8 °F 82% 29.55 in 7.0 mi SE 8.1 mph 18.4 mph N/A   Overcast
3:35 PM 57.2 °F 51.8 °F 82% 29.54 in 4.0 mi ESE 6.9 mph - N/A   Overcast
3:55 PM 57.2 °F 53.6 °F 88% 29.53 in 2.0 mi SE 10.4 mph - N/A   Overcast
4:35 PM 60.8 °F 55.4 °F 82% 29.53 in 5.0 mi South 10.4 mph - N/A   Overcast
4:55 PM 60.8 °F 55.4 °F 82% 29.54 in 6.0 mi SSW 15.0 mph 21.9 mph N/A   Overcast
5:15 PM 60.8 °F 53.6 °F 77% 29.54 in 5.0 mi SSW 16.1 mph 24.2 mph N/A   Overcast
5:35 PM 60.8 °F 51.8 °F 72% 29.54 in 5.0 mi SSW 16.1 mph 25.3 mph N/A   Overcast
5:55 PM 59.0 °F 51.8 °F 77% 29.56 in 6.0 mi SW 11.5 mph - N/A   Overcast
6:35 PM 57.2 °F 51.8 °F 82% 29.56 in 8.0 mi SSW 15.0 mph - N/A   Partly Cloudy
6:55 PM 57.2 °F 50.0 °F 77% 29.56 in 8.0 mi SSW 12.7 mph - N/A   Clear
7:15 PM 57.2 °F 48.2 °F 72% 29.57 in 10.0 mi SSW 16.1 mph 20.7 mph N/A   Clear
7:35 PM 57.2 °F 48.2 °F 72% 29.57 in 10.0 mi SSW 13.8 mph 18.4 mph N/A   Partly Cloudy
7:55 PM 57.2 °F 48.2 °F 72% 29.58 in 10.0 mi SSW 17.3 mph 23.0 mph N/A   Mostly Cloudy
8:15 PM 57.2 °F 48.2 °F 72% 29.57 in 9.0 mi SSW 15.0 mph 23.0 mph N/A   Scattered Clouds
8:35 PM 57.2 °F 48.2 °F 72% 29.58 in 10.0 mi SSW 13.8 mph 21.9 mph N/A   Mostly Cloudy
9:15 PM 57.2 °F 48.2 °F 72% 29.58 in 10.0 mi SSW 17.3 mph 23.0 mph N/A   Scattered Clouds
9:35 PM 57.2 °F 48.2 °F 72% 29.59 in 10.0 mi SSW 17.3 mph - N/A   Mostly Cloudy
9:55 PM 55.4 °F 48.2 °F 77% 29.59 in 10.0 mi SSW 16.1 mph 21.9 mph N/A   Overcast
10:35 PM - - N/A% 29.59 in 9.0 mi SSW 16.1 mph 23.0 mph N/A   Mostly Cloudy
10:55 PM 55.4 °F 48.2 °F 77% 29.60 in 10.0 mi SW 16.1 mph 21.9 mph N/A   Clear
11:15 PM 57.2 °F 46.4 °F 67% 29.60 in 10.0 mi SW 15.0 mph 21.9 mph N/A   Clear
11:35 PM 57.2 °F 46.4 °F 67% 29.60 in 10.0 mi SW 17.3 mph 24.2 mph N/A   Clear
11:55 PM 55.4 °F 46.4 °F 72% 29.61 in 10.0 mi SW 17.3 mph 25.3 mph N/A   Clear